Time;durP1;ratioP1;P1;durP2;ratioP2;P2;SDS_P1;SDS_P2;PMS_P1;PMS_P2;Temp;Humidity;BMP_temperature;BMP_pressure;BME280_temperature;BME280_humidity;BME280_pressure;Samples;Min_cycle;Max_cycle;Signal;HPM_P1;HPM_P2
2022/05/18 00:00:27;;;;;;;4.43;2.10;;;;;;;21.00;51.05;100250.19;4961324;29;20111;-84
2022/05/18 00:03:09;;;;;;;6.00;2.10;;;;;;;20.95;51.11;100247.97;4961253;28;20405;-84
2022/05/18 00:05:39;;;;;;;6.50;2.20;;;;;;;20.98;51.42;100254.00;4961695;29;20063;-84
2022/05/18 00:08:07;;;;;;;6.93;2.50;;;;;;;20.96;51.36;100255.00;4960982;29;20118;-84
2022/05/18 00:10:35;;;;;;;5.57;2.22;;;;;;;20.96;51.31;100260.34;4962443;29;20114;-84
2022/05/18 00:13:03;;;;;;;3.67;2.10;;;;;;;20.94;51.32;100256.97;4961614;29;20553;-83
2022/05/18 00:15:30;;;;;;;3.13;2.38;;;;;;;20.94;51.33;100256.97;4961501;29;20047;-84
2022/05/18 00:17:57;;;;;;;5.45;2.67;;;;;;;20.94;51.37;100258.81;4962512;29;20089;-84
2022/05/18 00:20:24;;;;;;;6.03;2.35;;;;;;;20.93;51.44;100243.75;4962231;29;20058;-83
2022/05/18 00:22:53;;;;;;;4.70;2.63;;;;;;;20.91;51.71;100246.56;4962978;29;20054;-84
2022/05/18 00:25:22;;;;;;;4.25;2.45;;;;;;;20.90;51.70;100249.38;4963176;29;20047;-84
2022/05/18 00:27:50;;;;;;;5.45;2.67;;;;;;;20.90;51.66;100252.06;4964092;29;20047;-84
2022/05/18 00:30:19;;;;;;;4.13;2.47;;;;;;;20.88;51.71;100257.53;4963325;29;20055;-84
2022/05/18 00:32:46;;;;;;;7.50;2.92;;;;;;;20.86;51.71;100251.44;4964353;29;20114;-84
2022/05/18 00:35:14;;;;;;;4.07;2.45;;;;;;;20.86;51.84;100253.28;4962129;29;20055;-85
2022/05/18 00:37:41;;;;;;;7.38;2.95;;;;;;;20.84;51.67;100253.44;4963670;29;20107;-85
2022/05/18 00:40:10;;;;;;;5.38;2.30;;;;;;;20.80;52.08;100252.88;4963175;29;20046;-84
2022/05/18 00:42:38;;;;;;;3.20;1.95;;;;;;;20.80;51.82;100254.69;4962933;29;20055;-84
2022/05/18 00:45:05;;;;;;;3.15;2.20;;;;;;;20.78;52.03;100252.16;4962771;29;20058;-84
2022/05/18 00:47:32;;;;;;;5.50;2.22;;;;;;;20.77;51.76;100244.28;4962542;29;20059;-85
2022/05/18 00:50:00;;;;;;;4.68;2.60;;;;;;;;;;4946075;29;20055;-83
2022/05/18 00:52:36;;;;;;;6.25;2.72;;;;;;;20.71;52.19;100245.72;4962323;29;20055;-82
2022/05/18 00:55:08;;;;;;;4.13;2.28;;;;;;;20.73;52.24;100243.72;4962829;29;20122;-83
2022/05/18 00:57:42;;;;;;;4.80;2.40;;;;;;;20.72;52.15;100246.53;4963466;29;20055;-83
2022/05/18 01:00:13;;;;;;;7.18;3.22;;;;;;;20.71;52.27;100245.72;4963575;29;20051;-85
2022/05/18 01:02:44;;;;;;;4.20;2.40;;;;;;;20.70;52.19;100247.53;4963577;29;20354;-84
2022/05/18 01:05:17;;;;;;;3.95;2.53;;;;;;;20.69;52.46;100248.53;4964428;29;20114;-84
2022/05/18 01:07:49;;;;;;;4.47;2.60;;;;;;;20.69;52.29;100250.34;4963867;29;20055;-82
2022/05/18 01:10:15;;;;;;;4.40;2.60;;;;;;;20.70;52.14;100241.34;4964855;29;20083;-84
2022/05/18 01:12:42;;;;;;;5.15;2.60;;;;;;;20.69;52.21;100239.66;4965047;29;20084;-84
2022/05/18 01:15:12;;;;;;;2.72;2.40;;;;;;;20.68;52.48;100252.16;4966599;28;20047;-84
2022/05/18 01:17:42;;;;;;;6.60;2.65;;;;;;;20.67;52.62;100247.81;4969647;29;20047;-84
2022/05/18 01:20:22;;;;;;;4.78;2.72;;;;;;;20.63;52.69;100246.41;4969328;29;20051;-84
2022/05/18 01:22:53;;;;;;;6.60;2.53;;;;;;;20.65;52.33;100241.78;4969387;29;20079;-84
2022/05/18 01:25:40;;;;;;;5.57;2.63;;;;;;;20.58;52.78;100243.31;4969116;29;20417;-82
2022/05/18 01:28:07;;;;;;;5.20;2.78;;;;;;;20.61;52.28;100239.50;4951550;29;20584;-83
2022/05/18 01:30:37;;;;;;;4.15;2.60;;;;;;;20.57;52.65;100247.81;4967844;29;20082;-84
2022/05/18 01:33:07;;;;;;;3.40;2.30;;;;;;;20.55;52.60;100248.94;4967498;29;20113;-84
2022/05/18 01:35:37;;;;;;;4.47;2.38;;;;;;;20.53;52.71;100248.25;4969037;29;20051;-84
2022/05/18 01:38:06;;;;;;;3.88;2.53;;;;;;;20.50;52.94;100245.84;4969790;29;20055;-84
2022/05/18 01:40:42;;;;;;;4.32;2.67;;;;;;;20.46;53.27;100247.97;4964950;29;20051;-83
2022/05/18 01:43:16;;;;;;;5.32;2.80;;;;;;;20.44;53.02;100248.09;4962754;29;20059;-81
2022/05/18 01:45:42;;;;;;;3.58;2.65;;;;;;;20.42;52.92;100242.03;4960436;29;20050;-81
2022/05/18 01:48:12;;;;;;;4.28;2.35;;;;;;;20.39;52.97;100246.81;4959925;29;20130;-83
2022/05/18 01:50:40;;;;;;;6.45;2.88;;;;;;;20.38;53.09;100259.38;4959591;29;20585;-82
2022/05/18 01:53:07;;;;;;;4.80;2.88;;;;;;;20.35;53.24;100258.78;4959798;29;20070;-81
2022/05/18 01:55:34;;;;;;;6.15;2.97;;;;;;;20.32;53.35;100259.91;4960192;29;20102;-83
2022/05/18 01:58:03;;;;;;;4.13;3.00;;;;;;;20.29;53.51;100268.19;4960675;29;20059;-82
2022/05/18 02:00:31;;;;;;;5.55;3.25;;;;;;;20.27;53.67;100259.47;4962993;29;20127;-84
2022/05/18 02:02:58;;;;;;;4.25;3.08;;;;;;;20.25;53.53;100262.28;4962016;29;20051;-81
2022/05/18 02:05:24;;;;;;;8.52;3.30;;;;;;;20.25;53.77;100256.09;4962116;29;20106;-82
2022/05/18 02:07:51;;;;;;;9.85;3.78;;;;;;;20.23;53.86;100253.56;4962003;29;20489;-84
2022/05/18 02:10:17;;;;;;;6.22;2.97;;;;;;;20.21;54.04;100260.88;4961702;29;20130;-82
2022/05/18 02:12:44;;;;;;;5.97;3.53;;;;;;;20.20;53.84;100253.00;4960403;29;20055;-82
2022/05/18 02:15:11;;;;;;;5.07;3.38;;;;;;;20.18;53.92;100264.66;4960825;29;20473;-83
2022/05/18 02:17:38;;;;;;;5.70;3.35;;;;;;;20.17;54.46;100254.97;4960747;29;20047;-83
2022/05/18 02:20:06;;;;;;;5.80;3.55;;;;;;;20.14;54.43;100260.59;4960638;29;20102;-82
2022/05/18 02:22:33;;;;;;;7.18;3.10;;;;;;;20.13;54.56;100256.22;4960771;29;20122;-82
2022/05/18 02:24:59;;;;;;;5.32;3.30;;;;;;;20.11;54.56;100260.03;4958752;29;20059;-82
2022/05/18 02:27:27;;;;;;;5.68;3.53;;;;;;;20.11;54.49;100252.84;4959093;28;20047;-81
2022/05/18 02:29:54;;;;;;;6.78;3.85;;;;;;;20.09;54.58;100245.94;4959440;29;20051;-82
2022/05/18 02:32:22;;;;;;;5.45;3.42;;;;;;;20.09;54.43;100245.94;4958708;29;20109;-82
2022/05/18 02:34:49;;;;;;;9.68;4.07;;;;;;;20.07;54.94;100239.91;4959415;29;20044;-82
2022/05/18 02:37:15;;;;;;;6.22;3.40;;;;;;;20.07;54.84;100243.41;4958868;29;20083;-82
2022/05/18 02:39:42;;;;;;;6.13;3.75;;;;;;;20.07;55.10;100243.41;4958494;29;20052;-83
2022/05/18 02:42:08;;;;;;;6.63;3.95;;;;;;;20.06;55.11;100239.03;4957088;29;20051;-82
2022/05/18 02:44:35;;;;;;;4.97;3.28;;;;;;;20.06;55.07;100236.38;4958834;29;20165;-83
2022/05/18 02:47:02;;;;;;;7.68;3.78;;;;;;;20.05;54.99;100250.72;4959590;29;20404;-85
2022/05/18 02:49:30;;;;;;;8.70;3.97;;;;;;;20.04;55.10;100244.53;4961912;29;20051;-83
2022/05/18 02:51:57;;;;;;;4.30;3.78;;;;;;;20.03;55.15;100245.50;4961774;29;20059;-81
2022/05/18 02:57:10;;;;;;;4.15;3.13;;;;;;;20.02;55.26;100241.16;4960337;29;20445;-83
2022/05/18 02:59:37;;;;;;;6.78;3.60;;;;;;;20.02;55.05;100245.66;4960287;29;20055;-82
2022/05/18 03:02:03;;;;;;;6.07;2.75;;;;;;;19.99;55.30;100233.41;4959481;29;20051;-82
2022/05/18 03:04:30;;;;;;;4.97;3.13;;;;;;;19.98;55.05;100231.72;4960104;29;20055;-83
2022/05/18 03:06:58;;;;;;;6.97;3.13;;;;;;;19.96;55.19;100230.97;4959364;29;20051;-82
2022/05/18 03:09:25;;;;;;;5.47;3.40;;;;;;;19.94;55.26;100235.63;4959221;29;20102;-82
2022/05/18 03:11:51;;;;;;;6.00;3.35;;;;;;;19.94;55.36;100235.63;4959615;29;20051;-83
2022/05/18 03:14:18;;;;;;;6.65;3.58;;;;;;;19.93;55.13;100242.78;4959086;29;20055;-82
2022/05/18 03:16:45;;;;;;;8.35;3.33;;;;;;;19.93;55.11;100249.97;4959522;29;20078;-82
2022/05/18 03:19:12;;;;;;;6.15;3.40;;;;;;;19.93;55.15;100248.13;4943030;29;20080;-82
2022/05/18 03:24:24;;;;;;;6.53;2.80;;;;;;;19.93;54.94;100252.63;4958476;29;20098;-82
2022/05/18 03:26:50;;;;;;;4.55;2.95;;;;;;;19.92;55.26;100243.75;4956472;29;20291;-81
2022/05/18 03:29:17;;;;;;;5.53;2.92;;;;;;;19.91;55.23;100250.09;4961388;29;20051;-82
2022/05/18 03:31:47;;;;;;;4.53;2.67;;;;;;;19.90;54.95;100245.75;4960971;29;20061;-82
2022/05/18 03:34:14;;;;;;;4.72;2.88;;;;;;;19.89;55.16;100252.03;4958458;29;20063;-82
2022/05/18 03:36:42;;;;;;;5.22;3.10;;;;;;;19.90;55.46;100248.41;4957326;29;20055;-81
2022/05/18 03:39:08;;;;;;;4.72;2.85;;;;;;;19.91;54.96;100257.25;4957268;28;20076;-81
2022/05/18 03:41:35;;;;;;;5.10;2.90;;;;;;;19.90;55.31;100253.75;4956809;29;20059;-81
2022/05/18 03:44:03;;;;;;;4.40;3.03;;;;;;;19.91;55.20;100252.78;4957592;29;20597;-83
2022/05/18 03:46:29;;;;;;;7.50;2.80;;;;;;;19.93;55.26;100253.47;4955922;29;20078;-82
2022/05/18 03:48:56;;;;;;;6.18;2.85;;;;;;;19.95;55.11;100248.00;4957349;29;20460;-82
2022/05/18 03:51:22;;;;;;;4.90;2.83;;;;;;;19.97;55.38;100251.38;4957859;29;20059;-82
2022/05/18 03:53:49;;;;;;;5.75;2.45;;;;;;;19.99;55.46;100243.25;4957669;29;20106;-82
2022/05/18 03:56:16;;;;;;;7.22;3.10;;;;;;;20.01;55.12;100250.16;4957801;29;20400;-82
2022/05/18 03:58:43;;;;;;;6.00;2.80;;;;;;;20.03;55.37;100245.50;4957996;29;20055;-83
2022/05/18 04:01:10;;;;;;;5.95;3.08;;;;;;;20.04;55.35;100247.19;4957506;29;20082;-81
2022/05/18 04:03:43;;;;;;;4.57;2.67;;;;;;;20.05;55.58;100248.06;4957225;29;20505;-83
2022/05/18 04:06:11;;;;;;;4.28;2.50;;;;;;;20.11;55.40;100254.69;4957434;29;20058;-83
2022/05/18 04:08:38;;;;;;;4.93;2.70;;;;;;;20.13;55.43;100253.56;4957650;29;20517;-83
2022/05/18 04:11:05;;;;;;;5.30;3.05;;;;;;;20.15;55.28;100250.75;4957586;29;20485;-82
2022/05/18 04:13:33;;;;;;;3.33;2.70;;;;;;;20.16;55.30;100253.28;4958932;29;20051;-82
2022/05/18 04:16:00;;;;;;;5.10;2.72;;;;;;;20.20;55.40;100259.19;4959356;29;20080;-82
2022/05/18 04:18:26;;;;;;;3.83;2.80;;;;;;;20.21;55.49;100266.22;4957352;29;20086;-82
2022/05/18 04:20:55;;;;;;;5.82;2.97;;;;;;;20.23;55.57;100255.41;4957791;29;20055;-84
2022/05/18 04:23:25;;;;;;;5.18;3.15;;;;;;;20.25;55.68;100256.09;4941376;29;20051;-82
2022/05/18 04:25:53;;;;;;;3.47;2.50;;;;;;;20.28;55.57;100263.84;4958929;29;20083;-82
2022/05/18 04:28:20;;;;;;;6.28;2.88;;;;;;;20.30;55.55;100260.03;4957636;29;20055;-82
2022/05/18 04:30:47;;;;;;;4.07;2.45;;;;;;;20.33;55.48;100263.44;4958954;29;20095;-82
2022/05/18 04:33:20;;;;;;;4.18;2.58;;;;;;;20.35;55.49;100266.81;4956978;29;20481;-82
2022/05/18 04:35:50;;;;;;;5.35;2.75;;;;;;;20.39;55.14;100271.75;4956723;29;20588;-81
2022/05/18 04:38:19;;;;;;;4.57;2.80;;;;;;;20.41;55.56;100275.09;4956361;29;20138;-82
2022/05/18 04:40:53;;;;;;;4.95;2.85;;;;;;;20.46;55.53;100274.72;4956535;28;20051;-82
2022/05/18 04:43:20;;;;;;;3.90;3.08;;;;;;;20.47;55.37;100276.38;4956482;29;20047;-83
2022/05/18 04:45:47;;;;;;;6.10;2.95;;;;;;;20.48;55.30;100283.41;4955893;28;20047;-82
2022/05/18 04:48:16;;;;;;;5.55;2.55;;;;;;;20.50;55.55;100281.47;4956294;29;20051;-82
2022/05/18 04:50:47;;;;;;;4.68;2.95;;;;;;;20.52;55.44;100281.31;4956190;28;20051;-82
2022/05/18 04:53:15;;;;;;;7.22;2.72;;;;;;;20.54;55.51;100282.88;4955497;29;20517;-84
2022/05/18 04:55:42;;;;;;;5.60;2.58;;;;;;;20.57;55.33;100289.78;4956583;29;20099;-82
2022/05/18 04:58:08;;;;;;;5.95;2.60;;;;;;;20.59;55.32;100284.28;4958484;28;20245;-83
2022/05/18 05:00:37;;;;;;;3.67;2.70;;;;;;;20.59;55.43;100287.78;4957467;29;20059;-82
2022/05/18 05:03:04;;;;;;;4.75;2.67;;;;;;;20.62;55.20;100295.53;4956545;28;20469;-83
2022/05/18 05:05:30;;;;;;;6.10;2.88;;;;;;;20.65;55.25;100297.94;4957192;29;20058;-84
2022/05/18 05:07:57;;;;;;;4.15;2.88;;;;;;;20.67;55.42;100303.16;4957273;28;20107;-82
2022/05/18 05:10:24;;;;;;;4.47;2.95;;;;;;;20.69;55.44;100310.06;4958616;29;20095;-82
2022/05/18 05:12:50;;;;;;;4.25;2.78;;;;;;;20.73;55.34;100307.06;4941233;29;20078;-82
2022/05/18 05:15:17;;;;;;;7.38;3.38;;;;;;;20.75;55.34;100310.47;4959437;29;20055;-83
2022/05/18 05:17:44;;;;;;;7.35;3.10;;;;;;;20.78;55.52;100308.34;4958906;29;20465;-82
2022/05/18 05:20:12;;;;;;;3.92;2.63;;;;;;;20.82;55.65;100316.97;4959148;29;20253;-82
2022/05/18 05:22:39;;;;;;;5.43;3.03;;;;;;;20.86;55.74;100322.88;4958993;29;20058;-83
2022/05/18 05:25:06;;;;;;;4.80;3.10;;;;;;;20.87;55.45;100325.44;4958505;29;20051;-82
2022/05/18 05:27:33;;;;;;;4.97;3.00;;;;;;;20.92;55.35;100323.19;4957252;29;20110;-84
2022/05/18 05:29:59;;;;;;;4.13;2.97;;;;;;;20.94;55.23;100329.22;4959208;29;20106;-84
2022/05/18 05:32:26;;;;;;;4.97;3.03;;;;;;;20.98;55.39;100327.13;4956707;29;20051;-83
2022/05/18 05:34:53;;;;;;;3.83;2.90;;;;;;;21.01;55.05;100329.50;4958669;29;20593;-85
2022/05/18 05:37:20;;;;;;;8.55;3.00;;;;;;;21.05;55.13;100332.75;4958093;29;20142;-83
2022/05/18 05:39:46;;;;;;;3.40;2.90;;;;;;;21.07;55.26;100331.63;4957740;29;20565;-83
2022/05/18 05:42:13;;;;;;;5.95;2.78;;;;;;;21.13;55.15;100332.03;4957663;29;20685;-82
2022/05/18 05:44:39;;;;;;;7.53;3.13;;;;;;;21.14;55.18;100337.25;4957405;29;20066;-82
2022/05/18 05:47:08;;;;;;;6.28;2.95;;;;;;;21.19;54.98;100339.47;4957106;29;20394;-82
2022/05/18 05:49:34;;;;;;;5.65;3.25;;;;;;;21.22;54.99;100332.03;4957742;29;20055;-82
2022/05/18 05:52:01;;;;;;;7.15;3.20;;;;;;;21.26;54.77;100337.94;4956517;29;20055;-84
2022/05/18 05:54:27;;;;;;;3.70;2.97;;;;;;;21.29;54.60;100334.97;4957383;29;20493;-84
2022/05/18 05:56:54;;;;;;;5.63;2.97;;;;;;;21.34;54.52;100331.84;4957769;29;20457;-82
2022/05/18 05:59:21;;;;;;;8.85;3.15;;;;;;;21.36;54.63;100332.56;4957819;29;20047;-81
2022/05/18 06:01:49;;;;;;;4.70;2.85;;;;;;;21.40;54.66;100336.63;4959012;28;20531;-82
2022/05/18 06:04:17;;;;;;;4.70;2.90;;;;;;;21.44;54.42;100343.41;4960038;29;20051;-82
2022/05/18 06:06:44;;;;;;;4.18;2.90;;;;;;;21.47;54.36;100332.41;4959966;28;20560;-82
2022/05/18 06:09:11;;;;;;;5.85;3.35;;;;;;;21.52;54.37;100331.13;4960535;29;20110;-83
2022/05/18 06:11:38;;;;;;;4.43;2.90;;;;;;;21.56;54.31;100340.53;4959496;29;20059;-82
2022/05/18 06:14:04;;;;;;;6.72;3.05;;;;;;;21.60;54.16;100334.75;4959294;29;20106;-82
2022/05/18 06:16:31;;;;;;;3.97;2.83;;;;;;;21.65;54.10;100336.16;4960327;29;20051;-82
2022/05/18 06:18:59;;;;;;;9.00;3.30;;;;;;;21.70;54.01;100341.91;4959867;29;20512;-82
2022/05/18 06:21:27;;;;;;;5.72;2.80;;;;;;;21.74;54.16;100341.53;4959210;29;20516;-82
2022/05/18 06:23:54;;;;;;;4.78;3.10;;;;;;;21.79;53.74;100337.56;4959459;28;20572;-81
2022/05/18 06:26:21;;;;;;;6.10;2.72;;;;;;;21.85;53.71;100350.34;4958359;29;20165;-82
2022/05/18 06:28:49;;;;;;;6.32;2.72;;;;;;;21.88;53.45;100350.06;4959262;29;20102;-81
2022/05/18 06:31:16;;;;;;;4.13;2.42;;;;;;;21.92;53.34;100354.16;4956674;29;20094;-83
2022/05/18 06:33:42;;;;;;;4.47;3.00;;;;;;;21.96;53.08;100352.84;4957991;29;20051;-83
2022/05/18 06:36:10;;;;;;;7.72;2.90;;;;;;;22.02;53.29;100350.56;4958220;29;20059;-83
2022/05/18 06:38:37;;;;;;;4.07;2.90;;;;;;;22.06;53.02;100352.81;4957966;29;20051;-83
2022/05/18 06:41:22;;;;;;;7.30;2.70;;;;;;;22.11;52.86;100349.69;4958404;29;20497;-83
2022/05/18 06:43:54;;;;;;;8.00;3.17;;;;;;;22.15;53.21;100347.53;4957911;29;20492;-84
2022/05/18 06:46:23;;;;;;;4.05;2.53;;;;;;;22.22;52.99;100354.84;4957012;29;20052;-83
2022/05/18 06:48:50;;;;;;;8.02;2.90;;;;;;;22.26;52.69;100339.31;4940983;29;20102;-83
2022/05/18 06:51:23;;;;;;;6.57;2.75;;;;;;;22.30;52.81;100356.78;4958563;29;20102;-83
2022/05/18 06:53:53;;;;;;;;;;;;;;;22.34;53.12;100352.81;4958982;29;20122;-83
2022/05/18 06:56:25;;;;;;;5.13;3.00;;;;;;;22.45;52.59;100348.22;4958026;29;19922;-83
2022/05/18 06:58:52;;;;;;;4.50;3.10;;;;;;;22.49;52.51;100353.13;4956752;29;20047;-83
2022/05/18 07:01:20;;;;;;;5.85;2.70;;;;;;;22.52;52.71;100358.22;4956838;29;20509;-83
2022/05/18 07:03:47;;;;;;;4.65;2.72;;;;;;;22.57;52.24;100355.09;4956877;29;20051;-81
2022/05/18 07:06:18;;;;;;;5.10;2.97;;;;;;;22.61;52.00;100356.47;4955685;29;20118;-83
2022/05/18 07:08:45;;;;;;;4.97;3.17;;;;;;;22.66;52.31;100353.34;4956162;29;20099;-83
2022/05/18 07:11:12;;;;;;;4.15;2.92;;;;;;;22.70;52.39;100352.06;4956481;28;20280;-82
2022/05/18 07:13:39;;;;;;;6.03;2.92;;;;;;;22.76;52.06;100348.75;4956674;28;20055;-83
2022/05/18 07:16:06;;;;;;;5.13;2.38;;;;;;;22.83;52.38;100353.50;4958957;29;20059;-83
2022/05/18 07:18:34;;;;;;;7.22;3.78;;;;;;;22.89;52.35;100351.06;4957609;29;20047;-84
2022/05/18 07:21:04;;;;;;;5.68;3.08;;;;;;;22.96;51.89;100353.09;4957349;29;20051;-83
2022/05/18 07:23:31;;;;;;;3.88;2.90;;;;;;;23.04;52.01;100350.50;4946539;28;20051;-83
2022/05/18 07:25:58;;;;;;;6.95;3.08;;;;;;;23.13;51.50;100351.41;4976132;28;20046;-83
2022/05/18 07:28:25;;;;;;;4.28;2.80;;;;;;;23.19;51.47;100356.16;4976065;28;20046;-83
2022/05/18 07:30:53;;;;;;;5.05;3.15;;;;;;;23.26;51.14;100351.00;4976176;28;20467;-83
2022/05/18 07:33:21;;;;;;;5.28;2.78;;;;;;;23.33;51.12;100343.16;4976547;28;20051;-83
2022/05/18 07:35:49;;;;;;;2.75;2.50;;;;;;;23.37;50.84;100345.44;4958782;28;20101;-83
2022/05/18 07:38:18;;;;;;;4.38;2.75;;;;;;;23.44;50.68;100353.69;4975764;28;20050;-83
2022/05/18 07:41:04;;;;;;;5.43;2.80;;;;;;;23.54;51.01;100356.25;4975480;28;20055;-84
2022/05/18 07:43:31;;;;;;;5.28;2.80;;;;;;;23.60;50.76;100350.28;4976192;28;20043;-83
2022/05/18 07:45:57;;;;;;;4.10;3.03;;;;;;;23.67;50.56;100351.28;4975732;28;20054;-83
2022/05/18 07:48:25;;;;;;;7.03;3.33;;;;;;;23.75;50.73;100349.66;4975311;28;20416;-84
2022/05/18 07:50:52;;;;;;;5.35;2.03;;;;;;;23.84;50.52;100354.06;4976229;28;20047;-83
2022/05/18 07:53:19;;;;;;;3.55;3.00;;;;;;;23.92;49.92;100354.13;4973988;28;20101;-84
2022/05/18 07:55:45;;;;;;;3.67;2.70;;;;;;;24.01;49.84;100348.78;4973971;28;20111;-84
2022/05/18 07:58:15;;;;;;;5.90;2.95;;;;;;;24.08;49.60;100341.75;4974162;28;20105;-83
2022/05/18 08:00:42;;;;;;;6.10;2.92;;;;;;;24.17;49.35;100348.03;4974073;28;20054;-83
2022/05/18 08:03:09;;;;;;;6.57;2.97;;;;;;;24.26;49.63;100354.31;4975315;28;20502;-83
2022/05/18 08:05:41;;;;;;;4.10;2.88;;;;;;;24.30;49.33;100351.09;4974491;28;20082;-83
2022/05/18 08:08:14;;;;;;;4.75;2.60;;;;;;;24.40;49.49;100345.59;4974727;28;20109;-83
2022/05/18 08:16:13;;;;;;;7.78;2.40;;;;;;;24.75;49.33;100350.88;4974542;28;20050;-83
2022/05/18 08:18:41;;;;;;;4.75;2.75;;;;;;;24.87;49.06;100351.44;4975251;28;20051;-82
2022/05/18 08:21:08;;;;;;;4.82;3.00;;;;;;;24.98;48.60;100348.38;4957967;28;20105;-82
2022/05/18 08:23:34;;;;;;;4.30;2.80;;;;;;;25.09;48.28;100352.59;4974400;28;20058;-83
2022/05/18 08:26:03;;;;;;;4.68;2.95;;;;;;;25.19;47.96;100360.50;4957260;28;20688;-82
2022/05/18 08:28:29;;;;;;;6.13;3.28;;;;;;;25.30;47.92;100356.63;4974095;28;20051;-83
2022/05/18 08:30:56;;;;;;;3.58;3.03;;;;;;;25.39;47.29;100362.88;4973220;28;20106;-82
2022/05/18 08:33:23;;;;;;;4.75;2.90;;;;;;;25.49;47.21;100351.91;4974166;28;20133;-83
2022/05/18 08:35:50;;;;;;;3.80;2.55;;;;;;;25.58;47.49;100360.84;4974676;28;20062;-83
2022/05/18 08:38:17;;;;;;;4.32;2.97;;;;;;;25.66;47.03;100359.97;4974311;28;20047;-83
2022/05/18 08:40:57;;;;;;;3.40;2.67;;;;;;;25.72;46.68;100353.91;4974441;28;20055;-83
2022/05/18 08:43:32;;;;;;;4.05;2.65;;;;;;;25.83;46.73;100360.78;4957117;28;20051;-83
2022/05/18 08:46:21;;;;;;;5.40;2.67;;;;;;;25.89;47.07;100360.91;4956663;28;20497;-83
2022/05/18 08:49:09;;;;;;;6.32;2.42;;;;;;;26.00;47.07;100361.53;4973526;28;20043;-83
2022/05/18 08:51:37;;;;;;;3.55;2.50;;;;;;;26.13;46.28;100361.00;4973639;28;20145;-84
2022/05/18 08:54:42;;;;;;;6.65;3.20;;;;;;;26.19;46.09;100365.69;4973433;28;20094;-84
2022/05/18 08:57:33;;;;;;;4.90;2.72;;;;;;;26.33;45.81;100374.09;4973210;28;20047;-83
2022/05/18 09:00:11;;;;;;;5.53;2.67;;;;;;;26.45;45.25;100366.41;4973898;28;20498;-83
2022/05/18 09:02:40;;;;;;;3.30;2.80;;;;;;;26.56;45.13;100376.84;4973933;28;20059;-83
2022/05/18 09:05:33;;;;;;;6.05;2.28;;;;;;;26.59;44.43;100381.03;4973941;28;20086;-83
2022/05/18 09:08:15;;;;;;;5.20;2.88;;;;;;;26.66;45.03;100372.03;4973805;28;20047;-83
2022/05/18 09:11:08;;;;;;;4.97;2.90;;;;;;;26.72;45.25;100373.19;4973905;28;20106;-83
2022/05/18 09:13:38;;;;;;;3.88;2.50;;;;;;;26.86;44.98;100376.13;4974501;28;20051;-83
2022/05/18 09:16:30;;;;;;;4.00;2.78;;;;;;;26.89;44.11;100376.63;4973726;28;20059;-83
2022/05/18 09:19:05;;;;;;;5.35;2.65;;;;;;;27.02;44.83;100369.81;4974079;28;20594;-82
2022/05/18 09:21:49;;;;;;;5.50;2.25;;;;;;;27.11;44.30;100374.13;4973508;28;20055;-83
2022/05/18 09:24:16;;;;;;;3.47;2.50;;;;;;;27.23;44.91;100382.63;4974159;28;20055;-83
2022/05/18 09:27:10;;;;;;;5.32;2.60;;;;;;;27.29;44.74;100379.19;4974039;28;20090;-83
2022/05/18 09:30:17;;;;;;;4.78;2.47;;;;;;;27.40;44.40;100375.19;4973504;28;20551;-83
2022/05/18 09:33:07;;;;;;;3.58;2.38;;;;;;;27.57;43.25;100377.75;4973311;28;20102;-84
2022/05/18 09:35:52;;;;;;;2.25;2.00;;;;;;;27.67;43.63;100367.53;4973511;28;20059;-84
2022/05/18 09:38:32;;;;;;;7.13;2.20;;;;;;;27.80;43.42;100372.28;4976858;28;20051;-84
2022/05/18 09:41:00;;;;;;;3.75;2.40;;;;;;;27.94;43.01;100367.91;4977148;28;20078;-83
2022/05/18 09:43:36;;;;;;;5.32;2.35;;;;;;;28.04;42.44;100364.06;4976706;28;20054;-84
2022/05/18 09:46:04;;;;;;;4.13;2.30;;;;;;;28.19;42.68;100362.16;4977332;28;20051;-84
2022/05/18 09:48:41;;;;;;;3.53;2.20;;;;;;;28.29;42.33;100363.78;4976922;28;20097;-84
2022/05/18 09:51:09;;;;;;;3.97;2.10;;;;;;;28.45;42.82;100363.53;4977113;28;20125;-84
2022/05/18 09:53:38;;;;;;;10.18;2.20;;;;;;;28.57;42.14;100360.34;4976352;28;20701;-83
2022/05/18 09:56:13;;;;;;;3.83;2.53;;;;;;;28.68;41.06;100362.56;4976219;28;20058;-83
2022/05/18 09:58:45;;;;;;;3.13;2.22;;;;;;;28.80;41.08;100362.03;4974564;28;20507;-84
2022/05/18 10:09:42;;;;;;;3.72;2.03;;;;;;;29.19;40.19;100360.72;4981498;28;20465;-84
2022/05/18 10:12:26;;;;;;;5.03;2.80;;;;;;;29.27;40.20;100363.28;4979975;28;20083;-83
2022/05/18 10:15:04;;;;;;;2.63;1.98;;;;;;;29.38;39.88;100356.50;4980342;28;20118;-84
2022/05/18 10:17:34;;;;;;;4.22;2.15;;;;;;;29.50;39.94;100362.22;4980582;28;20082;-84
2022/05/18 10:20:19;;;;;;;3.22;2.05;;;;;;;29.58;39.00;100354.97;4981089;28;20090;-84
2022/05/18 10:22:47;;;;;;;2.88;2.35;;;;;;;29.72;38.88;100361.34;4978905;28;20047;-84
2022/05/18 10:25:25;;;;;;;3.03;2.20;;;;;;;29.80;38.64;100357.63;4980235;28;20113;-85
2022/05/18 10:27:53;;;;;;;2.22;2.00;;;;;;;29.93;39.73;100349.53;4979629;28;20051;-84
2022/05/18 10:30:31;;;;;;;4.63;2.20;;;;;;;30.03;39.29;100352.72;4979594;28;20081;-84
2022/05/18 10:33:00;;;;;;;3.20;2.08;;;;;;;30.18;39.24;100351.78;4980675;28;20421;-85
2022/05/18 10:35:44;;;;;;;2.95;1.83;;;;;;;30.27;39.38;100350.53;4979578;28;20122;-84
2022/05/18 10:38:24;;;;;;;3.40;1.98;;;;;;;30.45;38.56;100345.59;4979256;28;20106;-84
2022/05/18 10:41:02;;;;;;;3.33;1.80;;;;;;;30.61;38.47;100347.91;4980490;28;20079;-84
2022/05/18 10:43:33;;;;;;;5.20;1.85;;;;;;;30.87;38.57;100345.47;4980722;28;20125;-84
2022/05/18 10:46:19;;;;;;;3.58;1.85;;;;;;;31.15;38.92;100350.69;4980177;28;20050;-84
2022/05/18 10:49:21;;;;;;;7.40;1.95;;;;;;;31.46;38.89;100345.66;4978957;28;20489;-84
2022/05/18 10:51:49;;;;;;;2.53;1.67;;;;;;;31.88;37.96;100339.91;4967041;28;20094;-84
2022/05/18 10:54:26;;;;;;;6.45;1.90;;;;;;;32.27;36.80;100339.97;4980341;28;20057;-85
2022/05/18 10:57:07;;;;;;;3.05;1.60;;;;;;;32.73;36.34;100339.91;4980743;28;20113;-84
2022/05/18 11:00:07;;;;;;;6.30;1.98;;;;;;;33.20;36.08;100333.25;4980824;28;20042;-85
2022/05/18 11:02:58;;;;;;;3.88;1.75;;;;;;;33.67;35.47;100338.25;4980381;28;20054;-85
2022/05/18 11:05:37;;;;;;;2.53;1.50;;;;;;;34.09;34.52;100329.41;4944101;28;20090;-86
2022/05/18 11:08:11;;;;;;;2.15;1.70;;;;;;;34.52;32.79;100332.97;4981399;28;20055;-84
2022/05/18 11:10:49;;;;;;;2.65;1.60;;;;;;;34.88;32.49;100324.88;4979289;28;20058;-85
2022/05/18 11:13:36;;;;;;;1.42;1.33;;;;;;;35.25;32.29;100325.75;4980800;28;20472;-84
2022/05/18 11:16:20;;;;;;;3.22;1.75;;;;;;;35.61;30.32;100327.34;4981195;28;20125;-85
2022/05/18 11:18:56;;;;;;;1.52;1.40;;;;;;;35.87;29.95;100321.59;4980598;28;20240;-86
2022/05/18 11:21:59;;;;;;;4.00;1.42;;;;;;;35.96;31.89;100322.88;4980913;28;20050;-85
2022/05/18 11:24:41;;;;;;;3.17;1.75;;;;;;;36.03;30.88;100316.44;4969122;28;20074;-85
2022/05/18 11:27:43;;;;;;;2.20;1.45;;;;;;;35.98;31.06;100311.69;4981220;28;20074;-84
2022/05/18 11:30:17;;;;;;;4.75;1.80;;;;;;;35.97;29.75;100308.13;4980667;28;20513;-83
2022/05/18 11:32:55;;;;;;;2.42;1.40;;;;;;;35.98;30.12;100307.03;4981700;28;20420;-85
2022/05/18 11:35:59;;;;;;;2.90;1.48;;;;;;;35.91;30.68;100314.56;4981987;28;20050;-85
2022/05/18 11:38:37;;;;;;;2.05;1.45;;;;;;;35.92;30.06;100309.94;4982138;28;20051;-84
2022/05/18 11:41:33;;;;;;;2.42;1.40;;;;;;;35.97;30.34;100304.53;4981677;28;20046;-84
2022/05/18 11:44:31;;;;;;;2.95;1.77;;;;;;;36.09;30.59;100304.47;4981550;28;20051;-84
2022/05/18 11:47:06;;;;;;;5.15;1.75;;;;;;;36.25;29.82;100306.47;4982750;28;20114;-84
2022/05/18 11:49:56;;;;;;;2.65;1.42;;;;;;;36.43;28.83;100306.50;4981935;28;20047;-85
2022/05/18 11:52:49;;;;;;;2.55;1.50;;;;;;;36.63;28.83;100298.59;4980589;28;20047;-85
2022/05/18 11:55:25;;;;;;;2.15;1.33;;;;;;;36.74;27.72;100304.31;4981244;28;20054;-83
2022/05/18 11:58:05;;;;;;;2.65;1.30;;;;;;;36.74;27.26;100299.63;4981399;28;20086;-85
2022/05/18 12:01:00;;;;;;;2.38;1.42;;;;;;;36.62;28.61;100293.38;4982410;28;20054;-83
2022/05/18 12:04:00;;;;;;;2.63;1.30;;;;;;;36.56;27.47;100289.72;4982046;28;20085;-85
2022/05/18 12:07:01;;;;;;;3.90;1.50;;;;;;;36.29;27.32;100292.28;4979868;28;20055;-83